createdAt,value
2019-05-23T00:00:51.796Z,1013.18
2019-05-23T00:01:51.789Z,1013.13
2019-05-23T00:02:51.791Z,1013.17
2019-05-23T00:03:51.780Z,1013.16
2019-05-23T00:04:51.777Z,1013.16
2019-05-23T00:05:51.779Z,1013.15
2019-05-23T00:06:51.768Z,1013.16
2019-05-23T00:07:51.761Z,1013.15
2019-05-23T00:08:51.756Z,1013.17
2019-05-23T00:09:51.749Z,1013.19
2019-05-23T00:10:51.745Z,1013.17
2019-05-23T00:11:51.742Z,1013.14
2019-05-23T00:12:51.740Z,1013.17
2019-05-23T00:13:51.734Z,1013.18
2019-05-23T00:14:51.735Z,1013.12
2019-05-23T00:15:51.722Z,1013.13
2019-05-23T00:16:51.715Z,1013.15
2019-05-23T00:17:51.709Z,1013.18
2019-05-23T00:18:51.708Z,1013.13
2019-05-23T00:19:51.702Z,1013.16
2019-05-23T00:20:51.698Z,1013.16
2019-05-23T00:21:51.696Z,1013.20
2019-05-23T00:22:51.690Z,1013.18
2019-05-23T00:23:51.685Z,1013.22
2019-05-23T00:24:51.679Z,1013.18
2019-05-23T00:25:51.675Z,1013.14
2019-05-23T00:26:51.667Z,1013.16
2019-05-23T00:27:51.679Z,1013.17
2019-05-23T00:28:51.710Z,1013.13
2019-05-23T00:29:51.651Z,1013.13
2019-05-23T00:30:51.648Z,1013.14
2019-05-23T00:31:51.643Z,1013.13
2019-05-23T00:32:51.639Z,1013.14
2019-05-23T00:33:51.662Z,1013.15
2019-05-23T00:34:51.628Z,1013.14
2019-05-23T00:35:51.625Z,1013.18
2019-05-23T00:36:51.625Z,1013.05
2019-05-23T00:37:51.614Z,1013.13
2019-05-23T00:38:51.609Z,1013.14
2019-05-23T00:39:51.607Z,1013.15
2019-05-23T00:40:51.597Z,1013.19
2019-05-23T00:41:51.595Z,1013.13
2019-05-23T00:42:51.590Z,1013.13
2019-05-23T00:43:51.633Z,1013.15
2019-05-23T00:44:51.580Z,1013.10
2019-05-23T00:45:51.572Z,1013.14
2019-05-23T00:46:51.571Z,1013.19
2019-05-23T00:47:51.566Z,1013.15
2019-05-23T00:48:51.557Z,1013.17
2019-05-23T00:49:51.551Z,1013.19
2019-05-23T00:50:51.548Z,1013.18
2019-05-23T00:51:51.545Z,1013.20
2019-05-23T00:52:51.539Z,1013.23
2019-05-23T00:53:51.532Z,1013.26
2019-05-23T00:54:51.527Z,1013.23
2019-05-23T00:55:51.525Z,1013.21
2019-05-23T00:56:51.517Z,1013.18
2019-05-23T00:57:51.512Z,1013.21
2019-05-23T00:58:51.507Z,1013.23
2019-05-23T00:59:51.502Z,1013.25
2019-05-23T01:00:51.626Z,1013.23
2019-05-23T01:01:51.502Z,1013.27
2019-05-23T01:02:51.488Z,1013.22
2019-05-23T01:03:51.482Z,1013.24
2019-05-23T01:04:51.482Z,1013.24
2019-05-23T01:05:51.474Z,1013.27
2019-05-23T01:06:51.480Z,1013.28
2019-05-23T01:07:51.460Z,1013.31
2019-05-23T01:08:51.459Z,1013.29
2019-05-23T01:09:51.452Z,1013.30
2019-05-23T01:10:51.449Z,1013.29
2019-05-23T01:11:51.441Z,1013.32
2019-05-23T01:12:51.442Z,1013.31
2019-05-23T01:13:51.434Z,1013.32
2019-05-23T01:14:51.430Z,1013.36
2019-05-23T01:15:51.420Z,1013.32
2019-05-23T01:16:51.418Z,1013.33
2019-05-23T01:17:51.410Z,1013.34
2019-05-23T01:18:51.414Z,1013.31
2019-05-23T01:19:51.401Z,1013.40
2019-05-23T01:20:51.396Z,1013.35
2019-05-23T01:21:51.389Z,1013.37
2019-05-23T01:22:51.387Z,1013.37
2019-05-23T01:23:51.379Z,1013.39
2019-05-23T01:24:51.376Z,1013.39
2019-05-23T01:25:51.371Z,1013.41
2019-05-23T01:26:51.712Z,1013.42
2019-05-23T01:27:51.470Z,1013.41
2019-05-23T01:28:51.357Z,1013.38
2019-05-23T01:29:51.349Z,1013.40
2019-05-23T01:30:51.346Z,1013.40
2019-05-23T01:31:51.403Z,1013.40
2019-05-23T01:32:51.335Z,1013.41
2019-05-23T01:33:51.327Z,1013.42
2019-05-23T01:34:51.325Z,1013.43
2019-05-23T01:35:51.328Z,1013.39
2019-05-23T01:36:51.313Z,1013.40
2019-05-23T01:37:51.306Z,1013.42
2019-05-23T01:38:51.302Z,1013.38
2019-05-23T01:39:51.296Z,1013.43
2019-05-23T01:40:51.292Z,1013.46
2019-05-23T01:41:51.318Z,1013.42
2019-05-23T01:42:51.282Z,1013.43
2019-05-23T01:43:51.281Z,1013.43
2019-05-23T01:44:51.270Z,1013.47
2019-05-23T01:45:51.265Z,1013.45
2019-05-23T01:46:51.258Z,1013.46
2019-05-23T01:47:51.255Z,1013.47
2019-05-23T01:48:51.250Z,1013.47
2019-05-23T01:49:51.244Z,1013.49
2019-05-23T01:50:51.267Z,1013.47
2019-05-23T01:51:51.232Z,1013.50
2019-05-23T01:52:51.227Z,1013.52
2019-05-23T01:53:51.222Z,1013.54
2019-05-23T01:54:51.217Z,1013.58
2019-05-23T01:55:51.210Z,1013.58
2019-05-23T01:56:51.209Z,1013.53
2019-05-23T01:57:51.200Z,1013.59
2019-05-23T01:58:51.199Z,1013.58
2019-05-23T02:00:06.097Z,1013.57
2019-05-23T02:00:51.183Z,1013.54
2019-05-23T02:01:51.178Z,1013.57
2019-05-23T02:02:51.174Z,1013.57
2019-05-23T02:03:51.186Z,1013.61
2019-05-23T02:04:51.166Z,1013.62
2019-05-23T02:05:51.159Z,1013.64
2019-05-23T02:06:51.161Z,1013.61
2019-05-23T02:07:51.147Z,1013.63
2019-05-23T02:08:51.147Z,1013.64
2019-05-23T02:09:51.137Z,1013.63
2019-05-23T02:10:51.127Z,1013.64
2019-05-23T02:11:51.124Z,1013.63
2019-05-23T02:12:51.116Z,1013.62
2019-05-23T02:13:51.112Z,1013.62
2019-05-23T02:14:51.108Z,1013.66
2019-05-23T02:15:51.102Z,1013.65
2019-05-23T02:16:51.097Z,1013.62
2019-05-23T02:17:51.161Z,1013.63
2019-05-23T02:18:51.087Z,1013.68
2019-05-23T02:19:51.078Z,1013.69
2019-05-23T02:20:51.073Z,1013.72
2019-05-23T02:21:51.067Z,1013.67
2019-05-23T02:22:51.062Z,1013.68
2019-05-23T02:23:51.057Z,1013.69
2019-05-23T02:24:51.053Z,1013.65
2019-05-23T02:25:51.045Z,1013.68
2019-05-23T02:26:51.040Z,1013.67
2019-05-23T02:27:51.036Z,1013.65
2019-05-23T02:28:51.028Z,1013.65
2019-05-23T02:29:51.033Z,1013.63
2019-05-23T02:30:51.019Z,1013.63
2019-05-23T02:31:51.016Z,1013.63
2019-05-23T02:32:51.019Z,1013.60
2019-05-23T02:33:51.001Z,1013.59
2019-05-23T02:34:50.995Z,1013.60
2019-05-23T02:35:51.006Z,1013.61
2019-05-23T02:36:50.985Z,1013.63
2019-05-23T02:37:50.981Z,1013.61
2019-05-23T02:38:50.974Z,1013.62
2019-05-23T02:39:50.968Z,1013.65
2019-05-23T02:40:50.962Z,1013.61
2019-05-23T02:41:50.955Z,1013.61
2019-05-23T02:42:50.949Z,1013.63
2019-05-23T02:43:50.945Z,1013.59
2019-05-23T02:44:50.932Z,1013.62
2019-05-23T02:45:50.932Z,1013.58
2019-05-23T02:46:50.938Z,1013.55
2019-05-23T02:47:50.928Z,1013.59
2019-05-23T02:48:50.916Z,1013.58
2019-05-23T02:49:50.908Z,1013.56
2019-05-23T02:50:50.907Z,1013.58
2019-05-23T02:51:50.901Z,1013.62
2019-05-23T02:52:50.907Z,1013.62
2019-05-23T02:53:50.886Z,1013.60
2019-05-23T02:54:50.881Z,1013.65
2019-05-23T02:55:50.875Z,1013.66
2019-05-23T02:56:50.871Z,1013.59
2019-05-23T02:57:50.861Z,1013.65
2019-05-23T02:58:50.857Z,1013.63
2019-05-23T02:59:50.850Z,1013.63
2019-05-23T03:00:54.882Z,1013.65
2019-05-23T03:01:50.839Z,1013.63
2019-05-23T03:02:50.866Z,1013.66
2019-05-23T03:03:50.830Z,1013.67
2019-05-23T03:04:50.824Z,1013.69
2019-05-23T03:05:50.815Z,1013.71
2019-05-23T03:06:50.811Z,1013.70
2019-05-23T03:07:50.823Z,1013.67
2019-05-23T03:08:50.800Z,1013.70
2019-05-23T03:09:50.793Z,1013.68
2019-05-23T03:10:50.792Z,1013.69
2019-05-23T03:11:50.783Z,1013.69
2019-05-23T03:12:50.792Z,1013.71
2019-05-23T03:13:50.773Z,1013.68
2019-05-23T03:14:50.763Z,1013.73
2019-05-23T03:15:50.759Z,1013.71
2019-05-23T03:16:50.751Z,1013.69
2019-05-23T03:17:50.745Z,1013.70
2019-05-23T03:18:50.745Z,1013.72
2019-05-23T03:19:50.732Z,1013.69
2019-05-23T03:20:50.728Z,1013.69
2019-05-23T03:21:50.720Z,1013.67
2019-05-23T03:22:50.715Z,1013.68
2019-05-23T03:23:50.712Z,1013.67
2019-05-23T03:24:50.704Z,1013.66
2019-05-23T03:25:50.697Z,1013.67
2019-05-23T03:26:50.690Z,1013.65
2019-05-23T03:27:50.686Z,1013.66
2019-05-23T03:28:50.735Z,1013.68
2019-05-23T03:29:50.671Z,1013.65
2019-05-23T03:30:50.668Z,1013.68
2019-05-23T03:31:50.663Z,1013.72
2019-05-23T03:32:50.656Z,1013.75
2019-05-23T03:33:50.653Z,1013.72
2019-05-23T03:34:50.643Z,1013.73
2019-05-23T03:35:50.637Z,1013.71
2019-05-23T03:36:50.640Z,1013.74
2019-05-23T03:37:50.628Z,1013.72
2019-05-23T03:38:50.631Z,1013.75
2019-05-23T03:39:50.613Z,1013.75
2019-05-23T03:40:50.610Z,1013.74
2019-05-23T03:41:50.606Z,1013.72
2019-05-23T03:42:50.596Z,1013.78
2019-05-23T03:43:50.609Z,1013.79
2019-05-23T03:44:50.579Z,1013.77
2019-05-23T03:45:50.583Z,1013.76
2019-05-23T03:46:50.570Z,1013.77
2019-05-23T03:47:50.565Z,1013.77
2019-05-23T03:48:50.560Z,1013.78
2019-05-23T03:49:50.552Z,1013.80
2019-05-23T03:50:50.546Z,1013.84
2019-05-23T03:51:50.545Z,1013.84
2019-05-23T03:52:50.534Z,1013.85
2019-05-23T03:53:50.527Z,1013.85
2019-05-23T03:54:50.526Z,1013.80
2019-05-23T03:55:50.516Z,1013.82
2019-05-23T03:56:50.515Z,1013.83
2019-05-23T03:57:50.506Z,1013.83
2019-05-23T03:58:50.500Z,1013.88
2019-05-23T03:59:50.492Z,1013.88
2019-05-23T04:00:50.486Z,1013.87
2019-05-23T04:01:50.477Z,1013.87
2019-05-23T04:02:50.471Z,1013.82
2019-05-23T04:03:50.467Z,1013.84
2019-05-23T04:04:50.461Z,1013.83
2019-05-23T04:05:50.455Z,1013.87
2019-05-23T04:06:50.454Z,1013.88
2019-05-23T04:07:50.445Z,1013.90
2019-05-23T04:08:50.446Z,1013.90
2019-05-23T04:09:50.437Z,1013.93
2019-05-23T04:10:51.812Z,1013.91
2019-05-23T04:11:50.419Z,1013.90
2019-05-23T04:12:50.421Z,1013.92
2019-05-23T04:13:50.535Z,1013.94
2019-05-23T04:14:50.405Z,1013.90
2019-05-23T04:15:50.396Z,1013.99
2019-05-23T04:16:50.395Z,1013.99
2019-05-23T04:17:50.381Z,1013.97
2019-05-23T04:18:50.377Z,1013.99
2019-05-23T04:19:50.370Z,1014.01
2019-05-23T04:20:50.364Z,1014.03
2019-05-23T04:21:50.358Z,1014.04
2019-05-23T04:22:50.353Z,1014.16
2019-05-23T04:23:50.347Z,1014.16
2019-05-23T04:24:50.357Z,1014.08
2019-05-23T04:25:50.333Z,1014.16
2019-05-23T04:26:50.336Z,1014.06
2019-05-23T04:27:50.323Z,1014.02
2019-05-23T04:28:50.321Z,1014.02
2019-05-23T04:29:50.312Z,1014.09
2019-05-23T04:30:50.314Z,1014.18
2019-05-23T04:32:06.170Z,1014.21
2019-05-23T04:32:50.303Z,1014.18
2019-05-23T04:33:50.289Z,1014.22
2019-05-23T04:34:50.281Z,1014.23
2019-05-23T04:35:50.277Z,1014.25
2019-05-23T04:36:50.272Z,1014.23
2019-05-23T04:37:50.267Z,1014.28
2019-05-23T04:38:50.260Z,1014.28
2019-05-23T04:39:50.255Z,1014.24
2019-05-23T04:40:50.253Z,1014.27
2019-05-23T04:41:50.249Z,1014.21
2019-05-23T04:42:50.239Z,1014.22
2019-05-23T04:43:50.238Z,1014.23
2019-05-23T04:44:50.231Z,1014.20
2019-05-23T04:45:50.226Z,1014.23
2019-05-23T04:46:50.223Z,1014.24
2019-05-23T04:47:50.216Z,1014.24
2019-05-23T04:48:50.215Z,1014.28
2019-05-23T04:49:50.210Z,1014.28
2019-05-23T04:50:50.205Z,1014.32
2019-05-23T04:51:50.200Z,1014.30
2019-05-23T04:52:50.196Z,1014.33
2019-05-23T04:53:50.191Z,1014.29
2019-05-23T04:54:50.185Z,1014.28
2019-05-23T04:55:50.189Z,1014.32
2019-05-23T04:56:50.180Z,1014.28
2019-05-23T04:57:50.176Z,1014.34
2019-05-23T04:58:50.172Z,1014.32
2019-05-23T04:59:50.168Z,1014.31
2019-05-23T05:00:50.164Z,1014.33
2019-05-23T05:01:50.170Z,1014.33
2019-05-23T05:02:50.162Z,1014.34
2019-05-23T05:03:50.160Z,1014.32
2019-05-23T05:04:50.150Z,1014.33
2019-05-23T05:05:50.153Z,1014.33
2019-05-23T05:06:50.154Z,1014.38
2019-05-23T05:07:50.145Z,1014.34
2019-05-23T05:08:50.140Z,1014.34
2019-05-23T05:09:50.134Z,1014.31
2019-05-23T05:10:50.130Z,1014.31
2019-05-23T05:11:50.125Z,1014.33
2019-05-23T05:12:50.123Z,1014.37
2019-05-23T05:13:50.127Z,1014.41
2019-05-23T05:14:50.113Z,1014.39
2019-05-23T05:15:50.124Z,1014.39
2019-05-23T05:16:50.112Z,1014.41
2019-05-23T05:17:50.107Z,1014.44
2019-05-23T05:18:50.113Z,1014.40
2019-05-23T05:19:50.105Z,1014.38
2019-05-23T05:20:50.100Z,1014.39
2019-05-23T05:21:50.098Z,1014.42
2019-05-23T05:22:50.095Z,1014.40
2019-05-23T05:23:50.094Z,1014.38
2019-05-23T05:24:50.093Z,1014.40
2019-05-23T05:25:50.116Z,1014.42
2019-05-23T05:26:50.087Z,1014.39
2019-05-23T05:27:50.083Z,1014.40
2019-05-23T05:28:50.082Z,1014.40
2019-05-23T05:29:50.088Z,1014.39
2019-05-23T05:30:50.080Z,1014.44
2019-05-23T05:31:50.075Z,1014.40
2019-05-23T05:32:50.073Z,1014.40
2019-05-23T05:33:50.073Z,1014.44
2019-05-23T05:34:50.075Z,1014.45
2019-05-23T05:35:50.068Z,1014.46
2019-05-23T05:36:50.070Z,1014.49
2019-05-23T05:37:50.064Z,1014.45
2019-05-23T05:38:50.064Z,1014.44
2019-05-23T05:39:50.068Z,1014.46
2019-05-23T05:40:50.059Z,1014.53
2019-05-23T05:41:50.065Z,1014.48
2019-05-23T05:42:50.057Z,1014.47
2019-05-23T05:43:50.057Z,1014.44
2019-05-23T05:44:50.054Z,1014.47
2019-05-23T05:45:50.045Z,1014.44
2019-05-23T05:46:50.055Z,1014.46
2019-05-23T05:47:50.097Z,1014.49
2019-05-23T05:48:50.049Z,1014.52
2019-05-23T05:49:50.048Z,1014.50
2019-05-23T05:50:50.046Z,1014.52
2019-05-23T05:51:50.054Z,1014.51
2019-05-23T05:52:50.042Z,1014.53
2019-05-23T05:53:50.046Z,1014.47
2019-05-23T05:54:50.040Z,1014.42
2019-05-23T05:55:50.040Z,1014.48
2019-05-23T05:56:50.039Z,1014.49
2019-05-23T05:57:50.039Z,1014.51
2019-05-23T05:58:50.038Z,1014.52
2019-05-23T05:59:50.034Z,1014.56
2019-05-23T06:00:50.053Z,1014.61
2019-05-23T06:01:50.040Z,1014.57
2019-05-23T06:03:03.530Z,1014.60
2019-05-23T06:03:50.035Z,1014.55
2019-05-23T06:04:50.035Z,1014.56
2019-05-23T06:05:50.034Z,1014.57
2019-05-23T06:06:50.342Z,1014.57
2019-05-23T06:07:50.033Z,1014.60
2019-05-23T06:08:50.035Z,1014.60
2019-05-23T06:09:50.035Z,1014.61
2019-05-23T06:10:50.030Z,1014.65
2019-05-23T06:11:50.032Z,1014.66
2019-05-23T06:12:50.033Z,1014.65
2019-05-23T06:13:50.033Z,1014.61
2019-05-23T06:14:50.063Z,1014.63
2019-05-23T06:15:50.032Z,1014.62
2019-05-23T06:16:50.035Z,1014.66
2019-05-23T06:17:50.043Z,1014.68
2019-05-23T06:18:50.032Z,1014.67
2019-05-23T06:19:50.034Z,1014.69
2019-05-23T06:20:50.034Z,1014.69
2019-05-23T06:21:50.032Z,1014.66
2019-05-23T06:22:50.034Z,1014.71
2019-05-23T06:23:50.034Z,1014.71
2019-05-23T06:24:53.768Z,1014.73
2019-05-23T06:25:50.034Z,1014.67
2019-05-23T06:26:50.035Z,1014.61
2019-05-23T06:27:50.037Z,1014.70
2019-05-23T06:28:50.037Z,1014.64
2019-05-23T06:29:50.036Z,1014.72
2019-05-23T06:30:50.035Z,1014.71
2019-05-23T06:31:50.039Z,1014.70
2019-05-23T06:32:50.041Z,1014.73
2019-05-23T06:33:50.037Z,1014.68
2019-05-23T06:34:50.043Z,1014.75
2019-05-23T06:35:50.040Z,1014.76
2019-05-23T06:36:50.043Z,1014.78
2019-05-23T06:37:50.045Z,1014.78
2019-05-23T06:38:50.040Z,1014.71
2019-05-23T06:39:50.042Z,1014.73
2019-05-23T06:40:50.041Z,1014.69
2019-05-23T06:41:50.055Z,1014.77
2019-05-23T06:42:51.061Z,1014.75
2019-05-23T06:43:50.044Z,1014.76
2019-05-23T06:44:50.044Z,1014.75
2019-05-23T06:45:50.051Z,1014.79
2019-05-23T06:46:50.046Z,1014.76
2019-05-23T06:47:50.049Z,1014.77
2019-05-23T06:48:50.049Z,1014.77
2019-05-23T06:49:50.048Z,1014.75
2019-05-23T06:50:50.049Z,1014.78
2019-05-23T06:51:50.048Z,1014.78
2019-05-23T06:52:50.048Z,1014.78
2019-05-23T06:53:50.053Z,1014.79
2019-05-23T06:54:50.049Z,1014.78
2019-05-23T06:55:50.052Z,1014.81
2019-05-23T06:56:50.058Z,1014.79
2019-05-23T06:57:50.054Z,1014.83
2019-05-23T06:58:50.056Z,1014.79
2019-05-23T06:59:50.056Z,1014.82
2019-05-23T07:00:50.088Z,1014.84
2019-05-23T07:01:50.063Z,1014.84
2019-05-23T07:02:50.056Z,1014.82
2019-05-23T07:03:50.056Z,1014.81
2019-05-23T07:04:50.057Z,1014.83
2019-05-23T07:05:50.060Z,1014.86
2019-05-23T07:06:50.062Z,1014.86
2019-05-23T07:07:50.060Z,1014.78
2019-05-23T07:08:50.059Z,1014.85
2019-05-23T07:09:50.062Z,1014.85
2019-05-23T07:10:50.062Z,1014.85
2019-05-23T07:11:50.068Z,1014.85
2019-05-23T07:12:50.069Z,1014.83
2019-05-23T07:13:50.066Z,1014.91
2019-05-23T07:14:50.122Z,1014.85
2019-05-23T07:15:50.069Z,1014.86
2019-05-23T07:16:50.436Z,1014.87
2019-05-23T07:17:50.071Z,1014.88
2019-05-23T07:18:50.076Z,1014.91
2019-05-23T07:19:50.074Z,1014.93
2019-05-23T07:20:50.078Z,1014.91
2019-05-23T07:21:50.076Z,1014.89
2019-05-23T07:22:50.078Z,1014.90
2019-05-23T07:23:50.081Z,1014.89
2019-05-23T07:24:58.368Z,1014.86
2019-05-23T07:25:50.084Z,1014.88
2019-05-23T07:26:50.112Z,1014.87
2019-05-23T07:27:50.098Z,1014.92
2019-05-23T07:28:50.089Z,1014.92
2019-05-23T07:29:50.089Z,1014.92
2019-05-23T07:30:50.090Z,1014.92
2019-05-23T07:31:50.093Z,1014.94
2019-05-23T07:32:50.096Z,1014.90
2019-05-23T07:34:01.028Z,1014.93
2019-05-23T07:34:50.099Z,1014.93
2019-05-23T07:35:50.101Z,1014.90
2019-05-23T07:36:50.106Z,1014.93
2019-05-23T07:37:50.107Z,1014.90
2019-05-23T07:38:50.108Z,1015.02
2019-05-23T07:39:50.108Z,1014.99
2019-05-23T07:40:50.118Z,1014.93
2019-05-23T07:41:50.113Z,1014.91
2019-05-23T07:42:50.114Z,1014.92
2019-05-23T07:43:50.121Z,1014.85
2019-05-23T07:44:50.122Z,1014.87
2019-05-23T07:45:50.121Z,1014.88
2019-05-23T07:46:50.126Z,1014.93
2019-05-23T07:47:50.128Z,1014.92
2019-05-23T07:48:50.127Z,1014.93
2019-05-23T07:49:50.129Z,1014.91
2019-05-23T07:50:50.134Z,1014.88
2019-05-23T07:51:50.133Z,1014.92
2019-05-23T07:52:50.153Z,1014.94
2019-05-23T07:53:50.402Z,1014.94
2019-05-23T07:54:50.143Z,1014.86
2019-05-23T07:55:50.144Z,1014.93
2019-05-23T07:56:50.150Z,1014.80
2019-05-23T07:57:50.149Z,1014.91
2019-05-23T07:58:50.152Z,1014.81
2019-05-23T07:59:50.155Z,1014.85
2019-05-23T08:00:50.156Z,1014.94
2019-05-23T08:01:50.164Z,1014.97
2019-05-23T08:02:50.171Z,1014.96
2019-05-23T08:03:50.163Z,1014.89
2019-05-23T08:04:50.166Z,1014.93
2019-05-23T08:05:50.168Z,1014.97
2019-05-23T08:06:50.167Z,1014.95
2019-05-23T08:07:50.210Z,1014.92
2019-05-23T08:08:50.173Z,1014.94
2019-05-23T08:09:50.175Z,1014.97
2019-05-23T08:10:50.182Z,1014.95
2019-05-23T08:11:50.183Z,1014.94
2019-05-23T08:12:50.183Z,1014.94
2019-05-23T08:13:50.188Z,1014.87
2019-05-23T08:14:50.189Z,1014.95
2019-05-23T08:15:50.193Z,1014.89
2019-05-23T08:16:50.200Z,1014.79
2019-05-23T08:17:50.199Z,1014.92
2019-05-23T08:18:50.202Z,1015.05
2019-05-23T08:19:50.591Z,1014.94
2019-05-23T08:20:50.212Z,1015.02
2019-05-23T08:21:50.213Z,1015.04
2019-05-23T08:22:50.215Z,1014.95
2019-05-23T08:23:50.216Z,1014.86
2019-05-23T08:24:51.242Z,1014.79
2019-05-23T08:25:50.226Z,1014.82
2019-05-23T08:26:50.230Z,1015.09
2019-05-23T08:27:50.232Z,1015.10
2019-05-23T08:29:12.345Z,1015.11
2019-05-23T08:29:50.239Z,1015.10
2019-05-23T08:30:50.244Z,1014.80
2019-05-23T08:31:50.250Z,1014.96
2019-05-23T08:32:50.253Z,1015.12
2019-05-23T08:33:50.257Z,1014.88
2019-05-23T08:34:50.267Z,1015.09
2019-05-23T08:35:50.267Z,1015.11
2019-05-23T08:36:50.284Z,1015.12
2019-05-23T08:37:50.275Z,1015.06
2019-05-23T08:38:50.284Z,1015.07
2019-05-23T08:39:50.302Z,1014.92
2019-05-23T08:40:50.306Z,1015.12
2019-05-23T08:41:50.294Z,1015.12
2019-05-23T08:42:50.300Z,1014.84
2019-05-23T08:43:50.307Z,1014.82
2019-05-23T08:44:50.314Z,1015.13
2019-05-23T08:45:50.316Z,1015.04
2019-05-23T08:46:50.321Z,1015.18
2019-05-23T08:47:50.324Z,1015.15
2019-05-23T08:48:50.330Z,1015.07
2019-05-23T08:49:50.332Z,1015.06
2019-05-23T08:50:51.563Z,1015.07
2019-05-23T08:51:50.342Z,1015.01
2019-05-23T08:52:50.348Z,1014.97
2019-05-23T08:53:50.390Z,1014.93
2019-05-23T08:54:50.357Z,1014.80
2019-05-23T08:55:50.363Z,1014.83
2019-05-23T08:56:50.372Z,1014.86
2019-05-23T08:57:50.377Z,1014.78
2019-05-23T08:58:50.372Z,1014.85
2019-05-23T08:59:50.382Z,1014.87
2019-05-23T09:00:50.384Z,1014.84
2019-05-23T09:01:50.390Z,1014.82
2019-05-23T09:02:50.390Z,1014.79
2019-05-23T09:03:50.396Z,1014.83
2019-05-23T09:05:03.759Z,1014.89
2019-05-23T09:05:50.401Z,1014.81
2019-05-23T09:06:50.407Z,1014.82
2019-05-23T09:07:50.412Z,1014.79
2019-05-23T09:08:50.411Z,1014.81
2019-05-23T09:09:50.411Z,1014.79
2019-05-23T09:10:50.417Z,1014.79
2019-05-23T09:11:50.416Z,1014.81
2019-05-23T09:12:50.421Z,1014.83
2019-05-23T09:13:50.421Z,1014.82
2019-05-23T09:14:50.422Z,1014.85
2019-05-23T09:15:53.192Z,1014.86
2019-05-23T09:16:50.430Z,1014.88
2019-05-23T09:17:53.644Z,1014.89
2019-05-23T09:18:50.430Z,1014.85
2019-05-23T09:19:50.430Z,1014.80
2019-05-23T09:20:50.435Z,1014.87
2019-05-23T09:21:56.956Z,1014.83
2019-05-23T09:22:50.436Z,1014.83
2019-05-23T09:23:50.440Z,1014.80
2019-05-23T09:24:50.435Z,1014.74
2019-05-23T09:25:50.470Z,1014.85
2019-05-23T09:26:50.456Z,1014.83
2019-05-23T09:27:50.437Z,1014.83
2019-05-23T09:28:50.453Z,1014.83
2019-05-23T09:29:50.438Z,1014.81
2019-05-23T09:30:50.442Z,1014.83
2019-05-23T09:31:50.446Z,1014.85
2019-05-23T09:32:50.442Z,1014.83
2019-05-23T09:33:50.446Z,1014.84
2019-05-23T09:34:50.440Z,1014.83
2019-05-23T09:35:50.441Z,1014.81
2019-05-23T09:36:50.443Z,1014.84
2019-05-23T09:37:50.449Z,1014.78
2019-05-23T09:38:50.510Z,1014.78
2019-05-23T09:39:50.446Z,1014.80
2019-05-23T09:40:50.446Z,1014.81
2019-05-23T09:41:50.441Z,1014.81
2019-05-23T09:42:50.470Z,1014.81
2019-05-23T09:43:50.447Z,1014.78
2019-05-23T09:44:50.443Z,1014.77
2019-05-23T09:45:50.444Z,1014.71
2019-05-23T09:46:50.444Z,1014.74
2019-05-23T09:47:51.547Z,1014.77
2019-05-23T09:48:50.444Z,1014.83
2019-05-23T09:49:54.263Z,1014.77
2019-05-23T09:50:50.489Z,1014.78
2019-05-23T09:51:53.528Z,1014.69
2019-05-23T09:52:50.440Z,1014.71
2019-05-23T09:53:50.443Z,1014.68
2019-05-23T09:54:50.471Z,1014.73
2019-05-23T09:55:50.445Z,1014.70
2019-05-23T09:56:50.445Z,1014.74
2019-05-23T09:57:50.533Z,1014.68
2019-05-23T09:58:50.443Z,1014.71
2019-05-23T09:59:50.442Z,1014.69
2019-05-23T10:00:50.443Z,1014.65
2019-05-23T10:01:50.457Z,1014.66
2019-05-23T10:02:50.442Z,1014.67
2019-05-23T10:03:50.437Z,1014.67
2019-05-23T10:04:50.445Z,1014.63
2019-05-23T10:05:50.436Z,1014.66
2019-05-23T10:06:50.439Z,1014.67
2019-05-23T10:07:50.435Z,1014.64
2019-05-23T10:08:50.434Z,1014.62
2019-05-23T10:09:50.434Z,1014.60
2019-05-23T10:10:50.431Z,1014.67
2019-05-23T10:11:50.433Z,1014.69
2019-05-23T10:12:50.432Z,1014.70
2019-05-23T10:13:50.431Z,1014.66
2019-05-23T10:14:50.433Z,1014.67
2019-05-23T10:15:50.430Z,1014.65
2019-05-23T10:16:50.442Z,1014.69
2019-05-23T10:17:50.436Z,1014.66
2019-05-23T10:18:50.427Z,1014.68
2019-05-23T10:19:50.424Z,1014.63
2019-05-23T10:20:50.425Z,1014.57
2019-05-23T10:21:50.423Z,1014.68
2019-05-23T10:22:50.423Z,1014.67
2019-05-23T10:23:50.421Z,1014.68
2019-05-23T10:24:50.428Z,1014.69
2019-05-23T10:25:50.420Z,1014.68
2019-05-23T10:26:50.418Z,1014.62
2019-05-23T10:27:50.417Z,1014.64
2019-05-23T10:28:50.418Z,1014.65
2019-05-23T10:29:50.724Z,1014.68
2019-05-23T10:30:50.416Z,1014.69
2019-05-23T10:31:50.415Z,1014.66
2019-05-23T10:32:50.418Z,1014.72
2019-05-23T10:33:50.414Z,1014.73
2019-05-23T10:34:50.423Z,1014.73
2019-05-23T10:36:00.579Z,1014.69
2019-05-23T10:36:50.418Z,1014.74
2019-05-23T10:37:50.413Z,1014.73
2019-05-23T10:38:50.411Z,1014.74
2019-05-23T10:39:50.413Z,1014.73
2019-05-23T10:40:50.410Z,1014.75
2019-05-23T10:41:50.407Z,1014.72
2019-05-23T10:42:50.407Z,1014.79
2019-05-23T10:43:50.428Z,1014.69
2019-05-23T10:44:50.409Z,1014.68
2019-05-23T10:45:50.404Z,1014.65
2019-05-23T10:46:50.411Z,1014.70
2019-05-23T10:47:50.404Z,1014.67
2019-05-23T10:48:50.403Z,1014.68
2019-05-23T10:49:50.403Z,1014.70
2019-05-23T10:50:50.401Z,1014.64
2019-05-23T10:51:50.436Z,1014.61
2019-05-23T10:52:50.408Z,1014.59
2019-05-23T10:53:50.400Z,1014.57
2019-05-23T10:54:50.417Z,1014.66
2019-05-23T10:55:50.398Z,1014.65
2019-05-23T10:56:50.399Z,1014.64
2019-05-23T10:57:50.399Z,1014.62
2019-05-23T10:58:50.394Z,1014.51
2019-05-23T10:59:50.397Z,1014.54
2019-05-23T11:00:50.398Z,1014.53
2019-05-23T11:01:50.541Z,1014.56
2019-05-23T11:02:50.394Z,1014.54
2019-05-23T11:03:50.394Z,1014.53
2019-05-23T11:04:50.393Z,1014.55
2019-05-23T11:05:50.391Z,1014.50
2019-05-23T11:06:51.187Z,1014.56
2019-05-23T11:07:50.395Z,1014.56
2019-05-23T11:08:50.390Z,1014.54
2019-05-23T11:09:50.392Z,1014.55
2019-05-23T11:10:50.389Z,1014.56
2019-05-23T11:11:50.393Z,1014.56
2019-05-23T11:12:50.391Z,1014.54
2019-05-23T11:13:50.389Z,1014.58
2019-05-23T11:14:50.389Z,1014.55
2019-05-23T11:15:50.386Z,1014.55
2019-05-23T11:16:50.388Z,1014.55
2019-05-23T11:17:53.389Z,1014.54
2019-05-23T11:18:50.394Z,1014.52
2019-05-23T11:19:50.388Z,1014.52
2019-05-23T11:20:50.454Z,1014.55
2019-05-23T11:21:50.385Z,1014.54
2019-05-23T11:22:50.384Z,1014.47
2019-05-23T11:23:50.387Z,1014.53
2019-05-23T11:24:50.391Z,1014.49
2019-05-23T11:25:50.390Z,1014.49
2019-05-23T11:26:50.386Z,1014.46
2019-05-23T11:27:50.382Z,1014.48
2019-05-23T11:28:50.388Z,1014.47
2019-05-23T11:29:50.385Z,1014.46
2019-05-23T11:30:50.382Z,1014.48
2019-05-23T11:31:50.382Z,1014.41
2019-05-23T11:32:50.385Z,1014.46
2019-05-23T11:33:50.380Z,1014.45
2019-05-23T11:34:50.385Z,1014.41
2019-05-23T11:35:50.385Z,1014.42
2019-05-23T11:36:50.382Z,1014.46
2019-05-23T11:37:50.377Z,1014.49
2019-05-23T11:38:50.382Z,1014.43
2019-05-23T11:39:51.032Z,1014.42
2019-05-23T11:40:50.383Z,1014.46
2019-05-23T11:41:50.377Z,1014.48
2019-05-23T11:42:52.598Z,1014.48
2019-05-23T11:43:50.376Z,1014.53
2019-05-23T11:44:50.386Z,1014.52
2019-05-23T11:45:50.378Z,1014.56
2019-05-23T11:46:50.376Z,1014.49
2019-05-23T11:47:50.419Z,1014.52
2019-05-23T11:48:50.376Z,1014.55
2019-05-23T11:49:50.376Z,1014.53
2019-05-23T11:50:50.374Z,1014.52
2019-05-23T11:51:50.377Z,1014.53
2019-05-23T11:52:50.375Z,1014.55
2019-05-23T11:54:05.861Z,1014.50
2019-05-23T11:54:50.376Z,1014.54
2019-05-23T11:55:54.196Z,1014.50
2019-05-23T11:56:50.380Z,1014.53
2019-05-23T11:57:50.398Z,1014.56
2019-05-23T11:58:50.372Z,1014.53
2019-05-23T11:59:50.373Z,1014.52
2019-05-23T12:00:50.395Z,1014.49
2019-05-23T12:01:50.369Z,1014.50
2019-05-23T12:02:50.370Z,1014.47
2019-05-23T12:03:50.370Z,1014.49
2019-05-23T12:04:50.373Z,1014.47
2019-05-23T12:05:50.377Z,1014.50